sensor_id;sensor_type;location;lat;lon;timestamp;P1;durP1;ratioP1;P2;durP2;ratioP2
7383;SDS011;3733;47.994;8.820;2023-07-29T00:01:30;4.33;;;3.30;;
7383;SDS011;3733;47.994;8.820;2023-07-29T00:03:56;6.70;;;3.70;;
7383;SDS011;3733;47.994;8.820;2023-07-29T00:06:22;4.03;;;3.63;;
7383;SDS011;3733;47.994;8.820;2023-07-29T00:08:48;4.97;;;3.53;;
7383;SDS011;3733;47.994;8.820;2023-07-29T00:11:14;4.20;;;3.80;;
7383;SDS011;3733;47.994;8.820;2023-07-29T00:13:40;6.10;;;3.67;;
7383;SDS011;3733;47.994;8.820;2023-07-29T00:16:05;8.03;;;3.57;;
7383;SDS011;3733;47.994;8.820;2023-07-29T00:18:31;8.50;;;4.03;;
7383;SDS011;3733;47.994;8.820;2023-07-29T00:20:57;5.27;;;3.77;;
7383;SDS011;3733;47.994;8.820;2023-07-29T00:23:23;7.27;;;4.27;;
7383;SDS011;3733;47.994;8.820;2023-07-29T00:25:48;5.70;;;4.20;;
7383;SDS011;3733;47.994;8.820;2023-07-29T00:28:14;24.70;;;5.17;;
7383;SDS011;3733;47.994;8.820;2023-07-29T00:30:40;12.20;;;5.03;;
7383;SDS011;3733;47.994;8.820;2023-07-29T00:33:05;9.60;;;5.03;;
7383;SDS011;3733;47.994;8.820;2023-07-29T00:35:31;18.20;;;4.60;;
7383;SDS011;3733;47.994;8.820;2023-07-29T00:37:57;15.33;;;4.40;;
7383;SDS011;3733;47.994;8.820;2023-07-29T00:40:22;5.90;;;4.20;;
7383;SDS011;3733;47.994;8.820;2023-07-29T00:42:48;10.13;;;5.47;;
7383;SDS011;3733;47.994;8.820;2023-07-29T00:45:15;13.30;;;4.77;;
7383;SDS011;3733;47.994;8.820;2023-07-29T00:47:41;16.30;;;5.20;;
7383;SDS011;3733;47.994;8.820;2023-07-29T00:50:09;14.57;;;5.00;;
7383;SDS011;3733;47.994;8.820;2023-07-29T00:52:36;35.30;;;5.50;;
7383;SDS011;3733;47.994;8.820;2023-07-29T00:55:02;11.13;;;4.67;;
7383;SDS011;3733;47.994;8.820;2023-07-29T00:57:28;8.73;;;4.30;;
7383;SDS011;3733;47.994;8.820;2023-07-29T00:59:55;6.73;;;4.90;;
7383;SDS011;3733;47.994;8.820;2023-07-29T01:02:21;8.90;;;4.83;;
7383;SDS011;3733;47.994;8.820;2023-07-29T01:04:51;9.87;;;4.67;;
7383;SDS011;3733;47.994;8.820;2023-07-29T01:15:32;14.53;;;4.20;;
7383;SDS011;3733;47.994;8.820;2023-07-29T01:18:05;12.80;;;3.97;;
7383;SDS011;3733;47.994;8.820;2023-07-29T01:20:37;16.40;;;3.93;;
7383;SDS011;3733;47.994;8.820;2023-07-29T01:23:05;26.83;;;4.07;;
7383;SDS011;3733;47.994;8.820;2023-07-29T01:25:31;17.40;;;4.87;;
7383;SDS011;3733;47.994;8.820;2023-07-29T01:27:56;13.63;;;4.60;;
7383;SDS011;3733;47.994;8.820;2023-07-29T01:30:25;33.40;;;5.20;;
7383;SDS011;3733;47.994;8.820;2023-07-29T01:35:31;7.43;;;3.80;;
7383;SDS011;3733;47.994;8.820;2023-07-29T01:38:24;29.67;;;4.77;;
7383;SDS011;3733;47.994;8.820;2023-07-29T01:40:53;46.70;;;4.40;;
7383;SDS011;3733;47.994;8.820;2023-07-29T01:43:19;20.03;;;4.43;;
7383;SDS011;3733;47.994;8.820;2023-07-29T01:45:48;36.03;;;4.60;;
7383;SDS011;3733;47.994;8.820;2023-07-29T01:48:14;8.80;;;3.77;;
7383;SDS011;3733;47.994;8.820;2023-07-29T01:50:39;41.30;;;5.20;;
7383;SDS011;3733;47.994;8.820;2023-07-29T01:53:05;12.53;;;4.63;;
7383;SDS011;3733;47.994;8.820;2023-07-29T01:55:31;16.53;;;4.13;;
7383;SDS011;3733;47.994;8.820;2023-07-29T01:57:56;25.37;;;4.60;;
7383;SDS011;3733;47.994;8.820;2023-07-29T02:00:23;29.63;;;4.27;;
7383;SDS011;3733;47.994;8.820;2023-07-29T02:02:48;13.83;;;4.70;;
7383;SDS011;3733;47.994;8.820;2023-07-29T02:05:14;78.87;;;6.60;;
7383;SDS011;3733;47.994;8.820;2023-07-29T02:07:40;83.27;;;6.03;;
7383;SDS011;3733;47.994;8.820;2023-07-29T02:10:05;40.47;;;3.90;;
7383;SDS011;3733;47.994;8.820;2023-07-29T02:12:32;20.13;;;3.90;;
7383;SDS011;3733;47.994;8.820;2023-07-29T02:14:57;51.50;;;4.97;;
7383;SDS011;3733;47.994;8.820;2023-07-29T02:17:23;34.97;;;4.33;;
7383;SDS011;3733;47.994;8.820;2023-07-29T02:19:48;35.40;;;4.67;;
7383;SDS011;3733;47.994;8.820;2023-07-29T02:22:15;44.63;;;4.43;;
7383;SDS011;3733;47.994;8.820;2023-07-29T02:24:41;10.67;;;3.67;;
7383;SDS011;3733;47.994;8.820;2023-07-29T02:27:07;53.37;;;4.10;;
7383;SDS011;3733;47.994;8.820;2023-07-29T02:29:33;18.20;;;4.00;;
7383;SDS011;3733;47.994;8.820;2023-07-29T02:31:59;36.27;;;4.03;;
7383;SDS011;3733;47.994;8.820;2023-07-29T02:34:25;34.23;;;4.07;;
7383;SDS011;3733;47.994;8.820;2023-07-29T02:36:50;20.97;;;3.47;;
7383;SDS011;3733;47.994;8.820;2023-07-29T02:39:16;38.77;;;3.93;;
7383;SDS011;3733;47.994;8.820;2023-07-29T02:41:42;35.27;;;4.60;;
7383;SDS011;3733;47.994;8.820;2023-07-29T02:44:07;24.83;;;3.87;;
7383;SDS011;3733;47.994;8.820;2023-07-29T02:46:33;31.33;;;4.77;;
7383;SDS011;3733;47.994;8.820;2023-07-29T02:48:58;20.03;;;3.87;;
7383;SDS011;3733;47.994;8.820;2023-07-29T02:51:24;25.90;;;3.97;;
7383;SDS011;3733;47.994;8.820;2023-07-29T02:53:50;20.53;;;3.43;;
7383;SDS011;3733;47.994;8.820;2023-07-29T02:56:15;34.97;;;3.97;;
7383;SDS011;3733;47.994;8.820;2023-07-29T02:58:41;27.57;;;5.10;;
7383;SDS011;3733;47.994;8.820;2023-07-29T03:01:07;17.03;;;4.00;;
7383;SDS011;3733;47.994;8.820;2023-07-29T03:03:32;19.13;;;4.33;;
7383;SDS011;3733;47.994;8.820;2023-07-29T03:06:02;24.40;;;3.40;;
7383;SDS011;3733;47.994;8.820;2023-07-29T03:08:28;27.33;;;4.10;;
7383;SDS011;3733;47.994;8.820;2023-07-29T03:10:54;26.07;;;4.10;;
7383;SDS011;3733;47.994;8.820;2023-07-29T03:13:20;38.13;;;4.90;;
7383;SDS011;3733;47.994;8.820;2023-07-29T03:15:46;40.20;;;4.93;;
7383;SDS011;3733;47.994;8.820;2023-07-29T03:18:12;26.07;;;4.60;;
7383;SDS011;3733;47.994;8.820;2023-07-29T03:20:37;44.83;;;5.97;;
7383;SDS011;3733;47.994;8.820;2023-07-29T03:23:03;15.07;;;4.13;;
7383;SDS011;3733;47.994;8.820;2023-07-29T03:25:28;17.10;;;5.07;;
7383;SDS011;3733;47.994;8.820;2023-07-29T03:27:54;23.37;;;3.73;;
7383;SDS011;3733;47.994;8.820;2023-07-29T03:30:20;22.30;;;4.27;;
7383;SDS011;3733;47.994;8.820;2023-07-29T03:32:47;48.70;;;5.13;;
7383;SDS011;3733;47.994;8.820;2023-07-29T03:35:14;22.10;;;3.50;;
7383;SDS011;3733;47.994;8.820;2023-07-29T03:37:39;21.13;;;4.90;;
7383;SDS011;3733;47.994;8.820;2023-07-29T03:40:05;38.20;;;4.30;;
7383;SDS011;3733;47.994;8.820;2023-07-29T03:42:32;7.23;;;3.90;;
7383;SDS011;3733;47.994;8.820;2023-07-29T03:44:58;35.00;;;4.30;;
7383;SDS011;3733;47.994;8.820;2023-07-29T03:47:23;25.57;;;4.60;;
7383;SDS011;3733;47.994;8.820;2023-07-29T03:49:49;6.23;;;4.00;;
7383;SDS011;3733;47.994;8.820;2023-07-29T03:52:15;23.13;;;4.37;;
7383;SDS011;3733;47.994;8.820;2023-07-29T03:54:40;10.83;;;4.43;;
7383;SDS011;3733;47.994;8.820;2023-07-29T03:57:06;13.83;;;4.27;;
7383;SDS011;3733;47.994;8.820;2023-07-29T03:59:32;27.57;;;4.80;;
7383;SDS011;3733;47.994;8.820;2023-07-29T04:01:57;6.30;;;3.90;;
7383;SDS011;3733;47.994;8.820;2023-07-29T04:04:23;24.53;;;4.93;;
7383;SDS011;3733;47.994;8.820;2023-07-29T04:06:48;13.23;;;4.60;;
7383;SDS011;3733;47.994;8.820;2023-07-29T04:09:14;11.27;;;4.10;;
7383;SDS011;3733;47.994;8.820;2023-07-29T04:11:39;13.40;;;4.10;;
7383;SDS011;3733;47.994;8.820;2023-07-29T04:14:05;16.57;;;4.00;;
7383;SDS011;3733;47.994;8.820;2023-07-29T04:16:31;6.07;;;3.67;;
7383;SDS011;3733;47.994;8.820;2023-07-29T04:18:56;5.47;;;3.53;;
7383;SDS011;3733;47.994;8.820;2023-07-29T04:21:22;11.20;;;4.40;;
7383;SDS011;3733;47.994;8.820;2023-07-29T04:23:47;5.87;;;3.50;;
7383;SDS011;3733;47.994;8.820;2023-07-29T04:26:13;11.57;;;4.00;;
7383;SDS011;3733;47.994;8.820;2023-07-29T04:28:38;5.50;;;4.40;;
7383;SDS011;3733;47.994;8.820;2023-07-29T04:31:04;8.47;;;3.80;;
7383;SDS011;3733;47.994;8.820;2023-07-29T04:33:30;7.10;;;4.30;;
7383;SDS011;3733;47.994;8.820;2023-07-29T04:35:58;13.83;;;4.70;;
7383;SDS011;3733;47.994;8.820;2023-07-29T04:38:27;4.00;;;3.60;;
7383;SDS011;3733;47.994;8.820;2023-07-29T04:40:56;7.50;;;3.67;;
7383;SDS011;3733;47.994;8.820;2023-07-29T04:43:22;6.70;;;4.00;;
7383;SDS011;3733;47.994;8.820;2023-07-29T04:45:47;3.60;;;3.30;;
7383;SDS011;3733;47.994;8.820;2023-07-29T04:48:13;4.27;;;3.60;;
7383;SDS011;3733;47.994;8.820;2023-07-29T04:50:38;6.37;;;3.60;;
7383;SDS011;3733;47.994;8.820;2023-07-29T04:53:04;3.73;;;3.37;;
7383;SDS011;3733;47.994;8.820;2023-07-29T04:55:30;4.27;;;3.40;;
7383;SDS011;3733;47.994;8.820;2023-07-29T04:57:56;4.27;;;3.87;;
7383;SDS011;3733;47.994;8.820;2023-07-29T05:00:21;4.20;;;3.77;;
7383;SDS011;3733;47.994;8.820;2023-07-29T05:02:47;4.73;;;4.33;;
7383;SDS011;3733;47.994;8.820;2023-07-29T05:05:12;4.10;;;3.00;;
7383;SDS011;3733;47.994;8.820;2023-07-29T05:07:38;5.00;;;4.27;;
7383;SDS011;3733;47.994;8.820;2023-07-29T05:10:04;4.73;;;4.00;;
7383;SDS011;3733;47.994;8.820;2023-07-29T05:12:30;4.57;;;3.73;;
7383;SDS011;3733;47.994;8.820;2023-07-29T05:14:57;4.33;;;3.40;;
7383;SDS011;3733;47.994;8.820;2023-07-29T05:17:23;6.33;;;3.87;;
7383;SDS011;3733;47.994;8.820;2023-07-29T05:19:49;7.90;;;4.73;;
7383;SDS011;3733;47.994;8.820;2023-07-29T05:22:14;8.23;;;3.97;;
7383;SDS011;3733;47.994;8.820;2023-07-29T05:24:40;5.87;;;3.87;;
7383;SDS011;3733;47.994;8.820;2023-07-29T05:27:05;7.10;;;4.80;;
7383;SDS011;3733;47.994;8.820;2023-07-29T05:29:33;5.47;;;4.20;;
7383;SDS011;3733;47.994;8.820;2023-07-29T05:31:59;4.63;;;4.03;;
7383;SDS011;3733;47.994;8.820;2023-07-29T05:34:24;4.50;;;3.70;;
7383;SDS011;3733;47.994;8.820;2023-07-29T05:36:50;4.53;;;4.10;;
7383;SDS011;3733;47.994;8.820;2023-07-29T05:39:15;5.50;;;4.20;;
7383;SDS011;3733;47.994;8.820;2023-07-29T05:41:41;4.27;;;3.87;;
7383;SDS011;3733;47.994;8.820;2023-07-29T05:44:07;6.60;;;3.00;;
7383;SDS011;3733;47.994;8.820;2023-07-29T05:46:32;4.80;;;3.60;;
7383;SDS011;3733;47.994;8.820;2023-07-29T05:48:58;4.30;;;3.90;;
7383;SDS011;3733;47.994;8.820;2023-07-29T05:51:23;6.57;;;3.67;;
7383;SDS011;3733;47.994;8.820;2023-07-29T05:53:49;5.93;;;4.67;;
7383;SDS011;3733;47.994;8.820;2023-07-29T05:56:14;7.93;;;3.53;;
7383;SDS011;3733;47.994;8.820;2023-07-29T05:58:40;4.53;;;3.60;;
7383;SDS011;3733;47.994;8.820;2023-07-29T06:01:06;3.47;;;3.17;;
7383;SDS011;3733;47.994;8.820;2023-07-29T06:03:31;6.37;;;4.60;;
7383;SDS011;3733;47.994;8.820;2023-07-29T06:05:57;5.53;;;3.60;;
7383;SDS011;3733;47.994;8.820;2023-07-29T06:08:23;7.00;;;4.60;;
7383;SDS011;3733;47.994;8.820;2023-07-29T06:10:48;6.57;;;4.80;;
7383;SDS011;3733;47.994;8.820;2023-07-29T06:13:14;5.60;;;4.10;;
7383;SDS011;3733;47.994;8.820;2023-07-29T06:15:39;7.83;;;5.07;;
7383;SDS011;3733;47.994;8.820;2023-07-29T06:18:05;5.30;;;4.57;;
7383;SDS011;3733;47.994;8.820;2023-07-29T06:20:30;6.20;;;4.53;;
7383;SDS011;3733;47.994;8.820;2023-07-29T06:22:56;7.83;;;5.63;;
7383;SDS011;3733;47.994;8.820;2023-07-29T06:25:22;7.60;;;5.20;;
7383;SDS011;3733;47.994;8.820;2023-07-29T06:27:47;7.30;;;5.00;;
7383;SDS011;3733;47.994;8.820;2023-07-29T06:30:13;7.07;;;5.63;;
7383;SDS011;3733;47.994;8.820;2023-07-29T06:32:38;13.73;;;5.90;;
7383;SDS011;3733;47.994;8.820;2023-07-29T06:35:04;6.47;;;5.00;;
7383;SDS011;3733;47.994;8.820;2023-07-29T06:37:30;7.50;;;5.27;;
7383;SDS011;3733;47.994;8.820;2023-07-29T06:39:56;7.77;;;5.00;;
7383;SDS011;3733;47.994;8.820;2023-07-29T06:42:21;8.17;;;5.93;;
7383;SDS011;3733;47.994;8.820;2023-07-29T06:44:47;8.10;;;5.47;;
7383;SDS011;3733;47.994;8.820;2023-07-29T06:47:12;6.10;;;4.67;;
7383;SDS011;3733;47.994;8.820;2023-07-29T06:49:38;11.17;;;5.07;;
7383;SDS011;3733;47.994;8.820;2023-07-29T06:52:04;7.13;;;4.60;;
7383;SDS011;3733;47.994;8.820;2023-07-29T06:54:29;8.70;;;5.07;;
7383;SDS011;3733;47.994;8.820;2023-07-29T06:56:55;16.50;;;5.23;;
7383;SDS011;3733;47.994;8.820;2023-07-29T06:59:20;8.43;;;4.83;;
7383;SDS011;3733;47.994;8.820;2023-07-29T07:01:46;8.87;;;4.40;;
7383;SDS011;3733;47.994;8.820;2023-07-29T07:04:12;5.93;;;4.77;;
7383;SDS011;3733;47.994;8.820;2023-07-29T07:06:37;5.27;;;4.40;;
7383;SDS011;3733;47.994;8.820;2023-07-29T07:09:03;6.43;;;4.40;;
7383;SDS011;3733;47.994;8.820;2023-07-29T07:11:29;7.70;;;4.33;;
7383;SDS011;3733;47.994;8.820;2023-07-29T07:13:54;4.77;;;3.90;;
7383;SDS011;3733;47.994;8.820;2023-07-29T07:16:20;7.10;;;3.90;;
7383;SDS011;3733;47.994;8.820;2023-07-29T07:18:46;5.50;;;4.77;;
7383;SDS011;3733;47.994;8.820;2023-07-29T07:21:11;6.00;;;4.40;;
7383;SDS011;3733;47.994;8.820;2023-07-29T07:23:38;4.90;;;4.20;;
7383;SDS011;3733;47.994;8.820;2023-07-29T07:26:04;5.37;;;4.40;;
7383;SDS011;3733;47.994;8.820;2023-07-29T07:28:29;4.93;;;3.73;;
7383;SDS011;3733;47.994;8.820;2023-07-29T07:30:55;6.77;;;4.70;;
7383;SDS011;3733;47.994;8.820;2023-07-29T07:33:21;6.57;;;4.47;;
7383;SDS011;3733;47.994;8.820;2023-07-29T07:35:47;5.90;;;4.40;;
7383;SDS011;3733;47.994;8.820;2023-07-29T07:38:12;5.40;;;4.30;;
7383;SDS011;3733;47.994;8.820;2023-07-29T07:40:38;6.40;;;4.23;;
7383;SDS011;3733;47.994;8.820;2023-07-29T07:43:03;6.30;;;3.73;;
7383;SDS011;3733;47.994;8.820;2023-07-29T07:45:29;7.10;;;4.83;;
7383;SDS011;3733;47.994;8.820;2023-07-29T07:47:56;4.70;;;3.80;;
7383;SDS011;3733;47.994;8.820;2023-07-29T07:50:22;4.60;;;3.60;;
7383;SDS011;3733;47.994;8.820;2023-07-29T07:52:49;5.07;;;3.80;;
7383;SDS011;3733;47.994;8.820;2023-07-29T07:55:14;5.30;;;3.70;;
7383;SDS011;3733;47.994;8.820;2023-07-29T07:57:40;6.70;;;3.90;;
7383;SDS011;3733;47.994;8.820;2023-07-29T08:00:06;7.23;;;4.60;;
7383;SDS011;3733;47.994;8.820;2023-07-29T08:02:32;5.57;;;4.40;;
7383;SDS011;3733;47.994;8.820;2023-07-29T08:04:57;5.03;;;4.20;;
7383;SDS011;3733;47.994;8.820;2023-07-29T08:07:23;8.10;;;4.93;;
7383;SDS011;3733;47.994;8.820;2023-07-29T08:09:49;14.20;;;6.17;;
7383;SDS011;3733;47.994;8.820;2023-07-29T08:12:14;5.53;;;3.53;;
7383;SDS011;3733;47.994;8.820;2023-07-29T08:14:40;6.67;;;4.23;;
7383;SDS011;3733;47.994;8.820;2023-07-29T08:17:06;7.13;;;3.93;;
7383;SDS011;3733;47.994;8.820;2023-07-29T08:19:31;6.20;;;3.87;;
7383;SDS011;3733;47.994;8.820;2023-07-29T08:21:57;8.30;;;4.40;;
7383;SDS011;3733;47.994;8.820;2023-07-29T08:24:23;6.13;;;4.23;;
7383;SDS011;3733;47.994;8.820;2023-07-29T08:26:49;5.40;;;3.80;;
7383;SDS011;3733;47.994;8.820;2023-07-29T08:29:14;5.93;;;3.10;;
7383;SDS011;3733;47.994;8.820;2023-07-29T08:31:40;6.23;;;3.43;;
7383;SDS011;3733;47.994;8.820;2023-07-29T08:34:05;5.57;;;3.00;;
7383;SDS011;3733;47.994;8.820;2023-07-29T08:36:32;4.40;;;3.70;;
7383;SDS011;3733;47.994;8.820;2023-07-29T08:38:57;7.97;;;3.20;;
7383;SDS011;3733;47.994;8.820;2023-07-29T08:46:38;4.10;;;3.50;;
7383;SDS011;3733;47.994;8.820;2023-07-29T08:49:04;3.90;;;3.27;;
7383;SDS011;3733;47.994;8.820;2023-07-29T08:51:31;6.43;;;3.80;;
7383;SDS011;3733;47.994;8.820;2023-07-29T08:53:58;4.13;;;3.50;;
7383;SDS011;3733;47.994;8.820;2023-07-29T08:56:24;3.47;;;3.17;;
7383;SDS011;3733;47.994;8.820;2023-07-29T08:58:50;4.47;;;3.50;;
7383;SDS011;3733;47.994;8.820;2023-07-29T09:01:17;4.90;;;4.10;;
7383;SDS011;3733;47.994;8.820;2023-07-29T09:03:42;5.17;;;4.00;;
7383;SDS011;3733;47.994;8.820;2023-07-29T09:06:08;6.87;;;3.90;;
7383;SDS011;3733;47.994;8.820;2023-07-29T09:08:34;4.67;;;3.90;;
7383;SDS011;3733;47.994;8.820;2023-07-29T09:11:00;5.53;;;4.30;;
7383;SDS011;3733;47.994;8.820;2023-07-29T09:13:26;4.93;;;4.17;;
7383;SDS011;3733;47.994;8.820;2023-07-29T09:15:55;4.17;;;3.77;;
7383;SDS011;3733;47.994;8.820;2023-07-29T09:18:22;5.07;;;3.80;;
7383;SDS011;3733;47.994;8.820;2023-07-29T09:20:50;3.80;;;3.43;;
7383;SDS011;3733;47.994;8.820;2023-07-29T09:23:16;6.93;;;4.13;;
7383;SDS011;3733;47.994;8.820;2023-07-29T09:25:42;5.53;;;3.77;;
7383;SDS011;3733;47.994;8.820;2023-07-29T09:28:11;6.67;;;3.80;;
7383;SDS011;3733;47.994;8.820;2023-07-29T09:30:39;4.90;;;3.70;;
7383;SDS011;3733;47.994;8.820;2023-07-29T09:33:05;12.60;;;3.50;;
7383;SDS011;3733;47.994;8.820;2023-07-29T09:35:32;4.00;;;3.60;;
7383;SDS011;3733;47.994;8.820;2023-07-29T09:37:59;4.23;;;3.10;;
7383;SDS011;3733;47.994;8.820;2023-07-29T09:40:25;3.60;;;3.10;;
7383;SDS011;3733;47.994;8.820;2023-07-29T09:42:51;3.70;;;3.30;;
7383;SDS011;3733;47.994;8.820;2023-07-29T09:45:22;6.20;;;3.70;;
7383;SDS011;3733;47.994;8.820;2023-07-29T09:47:49;5.10;;;3.50;;
7383;SDS011;3733;47.994;8.820;2023-07-29T09:50:15;4.20;;;3.00;;
7383;SDS011;3733;47.994;8.820;2023-07-29T09:52:41;5.07;;;3.57;;
7383;SDS011;3733;47.994;8.820;2023-07-29T09:55:09;4.50;;;3.50;;
7383;SDS011;3733;47.994;8.820;2023-07-29T09:57:39;4.97;;;3.27;;
7383;SDS011;3733;47.994;8.820;2023-07-29T10:00:05;3.03;;;2.70;;
7383;SDS011;3733;47.994;8.820;2023-07-29T10:02:36;9.83;;;2.90;;
7383;SDS011;3733;47.994;8.820;2023-07-29T10:05:08;3.93;;;3.50;;
7383;SDS011;3733;47.994;8.820;2023-07-29T10:07:36;3.90;;;3.17;;
7383;SDS011;3733;47.994;8.820;2023-07-29T10:10:03;4.90;;;3.27;;
7383;SDS011;3733;47.994;8.820;2023-07-29T10:12:33;5.77;;;3.00;;
7383;SDS011;3733;47.994;8.820;2023-07-29T10:15:00;5.27;;;3.20;;
7383;SDS011;3733;47.994;8.820;2023-07-29T10:17:33;3.90;;;3.10;;
7383;SDS011;3733;47.994;8.820;2023-07-29T10:20:01;5.73;;;3.33;;
7383;SDS011;3733;47.994;8.820;2023-07-29T10:22:28;3.20;;;2.87;;
7383;SDS011;3733;47.994;8.820;2023-07-29T10:25:04;2.80;;;2.50;;
7383;SDS011;3733;47.994;8.820;2023-07-29T10:27:52;2.87;;;2.63;;
7383;SDS011;3733;47.994;8.820;2023-07-29T10:30:22;3.37;;;2.73;;
7383;SDS011;3733;47.994;8.820;2023-07-29T10:32:49;4.40;;;3.43;;
7383;SDS011;3733;47.994;8.820;2023-07-29T10:35:18;3.30;;;3.00;;
7383;SDS011;3733;47.994;8.820;2023-07-29T10:37:43;3.83;;;2.80;;
7383;SDS011;3733;47.994;8.820;2023-07-29T10:40:10;3.37;;;2.60;;
7383;SDS011;3733;47.994;8.820;2023-07-29T10:42:37;4.20;;;3.37;;
7383;SDS011;3733;47.994;8.820;2023-07-29T10:45:19;6.70;;;2.80;;
7383;SDS011;3733;47.994;8.820;2023-07-29T10:47:46;6.50;;;3.50;;
7383;SDS011;3733;47.994;8.820;2023-07-29T10:50:19;4.17;;;3.00;;
7383;SDS011;3733;47.994;8.820;2023-07-29T10:52:48;4.83;;;3.07;;
7383;SDS011;3733;47.994;8.820;2023-07-29T10:57:51;4.23;;;2.97;;
7383;SDS011;3733;47.994;8.820;2023-07-29T11:00:18;3.50;;;2.60;;
7383;SDS011;3733;47.994;8.820;2023-07-29T11:02:47;2.70;;;2.20;;
7383;SDS011;3733;47.994;8.820;2023-07-29T11:05:25;3.57;;;2.80;;
7383;SDS011;3733;47.994;8.820;2023-07-29T11:07:50;5.80;;;2.57;;
7383;SDS011;3733;47.994;8.820;2023-07-29T11:10:16;3.80;;;3.17;;
7383;SDS011;3733;47.994;8.820;2023-07-29T11:12:43;3.53;;;2.70;;
7383;SDS011;3733;47.994;8.820;2023-07-29T11:17:39;3.07;;;2.67;;
7383;SDS011;3733;47.994;8.820;2023-07-29T11:20:08;3.13;;;2.47;;
7383;SDS011;3733;47.994;8.820;2023-07-29T11:22:35;3.03;;;2.73;;
7383;SDS011;3733;47.994;8.820;2023-07-29T11:25:01;2.73;;;2.27;;
7383;SDS011;3733;47.994;8.820;2023-07-29T11:27:27;2.50;;;2.23;;
7383;SDS011;3733;47.994;8.820;2023-07-29T11:29:57;3.30;;;2.20;;
7383;SDS011;3733;47.994;8.820;2023-07-29T11:32:23;4.87;;;2.70;;
7383;SDS011;3733;47.994;8.820;2023-07-29T11:34:50;2.10;;;1.90;;
7383;SDS011;3733;47.994;8.820;2023-07-29T11:37:16;3.23;;;2.40;;
7383;SDS011;3733;47.994;8.820;2023-07-29T11:39:41;2.40;;;2.20;;
7383;SDS011;3733;47.994;8.820;2023-07-29T11:42:11;2.37;;;2.17;;
7383;SDS011;3733;47.994;8.820;2023-07-29T11:44:37;2.80;;;2.13;;
7383;SDS011;3733;47.994;8.820;2023-07-29T11:47:06;2.80;;;2.47;;
7383;SDS011;3733;47.994;8.820;2023-07-29T11:49:33;2.75;;;2.50;;
7383;SDS011;3733;47.994;8.820;2023-07-29T11:51:59;3.97;;;2.60;;
7383;SDS011;3733;47.994;8.820;2023-07-29T11:54:25;2.03;;;1.93;;
7383;SDS011;3733;47.994;8.820;2023-07-29T11:56:51;2.47;;;2.20;;
7383;SDS011;3733;47.994;8.820;2023-07-29T11:59:17;1.90;;;1.67;;
7383;SDS011;3733;47.994;8.820;2023-07-29T12:01:43;2.10;;;2.00;;
7383;SDS011;3733;47.994;8.820;2023-07-29T12:04:08;4.23;;;1.80;;
7383;SDS011;3733;47.994;8.820;2023-07-29T12:06:34;2.40;;;2.00;;
7383;SDS011;3733;47.994;8.820;2023-07-29T12:09:00;5.60;;;2.03;;
7383;SDS011;3733;47.994;8.820;2023-07-29T12:11:26;2.10;;;1.90;;
7383;SDS011;3733;47.994;8.820;2023-07-29T12:13:55;2.63;;;2.23;;
7383;SDS011;3733;47.994;8.820;2023-07-29T12:16:21;6.80;;;2.30;;
7383;SDS011;3733;47.994;8.820;2023-07-29T12:18:46;2.10;;;1.87;;
7383;SDS011;3733;47.994;8.820;2023-07-29T12:21:14;2.23;;;1.90;;
7383;SDS011;3733;47.994;8.820;2023-07-29T12:23:40;2.13;;;1.93;;
7383;SDS011;3733;47.994;8.820;2023-07-29T12:26:06;6.70;;;1.83;;
7383;SDS011;3733;47.994;8.820;2023-07-29T12:28:31;3.17;;;2.20;;
7383;SDS011;3733;47.994;8.820;2023-07-29T12:30:57;2.30;;;2.10;;
7383;SDS011;3733;47.994;8.820;2023-07-29T12:33:31;2.90;;;2.20;;
7383;SDS011;3733;47.994;8.820;2023-07-29T12:36:01;2.50;;;2.03;;
7383;SDS011;3733;47.994;8.820;2023-07-29T12:38:27;2.17;;;1.73;;
7383;SDS011;3733;47.994;8.820;2023-07-29T12:40:54;2.87;;;2.10;;
7383;SDS011;3733;47.994;8.820;2023-07-29T12:43:20;5.60;;;2.00;;
7383;SDS011;3733;47.994;8.820;2023-07-29T12:45:46;2.70;;;2.10;;
7383;SDS011;3733;47.994;8.820;2023-07-29T12:48:13;4.57;;;2.60;;
7383;SDS011;3733;47.994;8.820;2023-07-29T12:50:40;2.60;;;2.17;;
7383;SDS011;3733;47.994;8.820;2023-07-29T12:53:06;4.73;;;2.70;;
7383;SDS011;3733;47.994;8.820;2023-07-29T12:55:33;2.17;;;1.97;;
7383;SDS011;3733;47.994;8.820;2023-07-29T12:57:58;4.63;;;2.30;;
7383;SDS011;3733;47.994;8.820;2023-07-29T13:00:24;2.50;;;2.13;;
7383;SDS011;3733;47.994;8.820;2023-07-29T13:02:50;3.50;;;2.20;;
7383;SDS011;3733;47.994;8.820;2023-07-29T13:05:15;2.30;;;2.03;;
7383;SDS011;3733;47.994;8.820;2023-07-29T13:07:42;4.43;;;2.20;;
7383;SDS011;3733;47.994;8.820;2023-07-29T13:10:08;3.70;;;2.73;;
7383;SDS011;3733;47.994;8.820;2023-07-29T13:12:35;2.40;;;2.20;;
7383;SDS011;3733;47.994;8.820;2023-07-29T13:15:00;3.17;;;2.33;;
7383;SDS011;3733;47.994;8.820;2023-07-29T13:17:26;3.00;;;2.37;;
7383;SDS011;3733;47.994;8.820;2023-07-29T13:19:52;3.03;;;2.60;;
7383;SDS011;3733;47.994;8.820;2023-07-29T13:22:17;2.73;;;2.50;;
7383;SDS011;3733;47.994;8.820;2023-07-29T13:24:44;2.27;;;2.07;;
7383;SDS011;3733;47.994;8.820;2023-07-29T13:27:10;2.70;;;2.43;;
7383;SDS011;3733;47.994;8.820;2023-07-29T13:29:36;9.40;;;2.63;;
7383;SDS011;3733;47.994;8.820;2023-07-29T13:32:01;4.77;;;2.50;;
7383;SDS011;3733;47.994;8.820;2023-07-29T13:34:27;2.93;;;2.63;;
7383;SDS011;3733;47.994;8.820;2023-07-29T13:36:53;5.33;;;2.70;;
7383;SDS011;3733;47.994;8.820;2023-07-29T13:39:18;3.10;;;2.80;;
7383;SDS011;3733;47.994;8.820;2023-07-29T13:41:44;2.60;;;2.30;;
7383;SDS011;3733;47.994;8.820;2023-07-29T13:44:09;4.03;;;2.90;;
7383;SDS011;3733;47.994;8.820;2023-07-29T13:46:35;2.63;;;2.40;;
7383;SDS011;3733;47.994;8.820;2023-07-29T13:49:01;2.93;;;2.50;;
7383;SDS011;3733;47.994;8.820;2023-07-29T13:51:27;3.80;;;2.77;;
7383;SDS011;3733;47.994;8.820;2023-07-29T13:53:52;3.70;;;2.50;;
7383;SDS011;3733;47.994;8.820;2023-07-29T13:56:18;3.20;;;2.50;;
7383;SDS011;3733;47.994;8.820;2023-07-29T13:58:43;2.47;;;2.27;;
7383;SDS011;3733;47.994;8.820;2023-07-29T14:01:09;2.57;;;2.30;;
7383;SDS011;3733;47.994;8.820;2023-07-29T14:03:35;2.67;;;2.47;;
7383;SDS011;3733;47.994;8.820;2023-07-29T14:06:00;5.63;;;2.40;;
7383;SDS011;3733;47.994;8.820;2023-07-29T14:08:26;2.73;;;2.50;;
7383;SDS011;3733;47.994;8.820;2023-07-29T14:10:51;5.20;;;2.30;;
7383;SDS011;3733;47.994;8.820;2023-07-29T14:13:17;3.43;;;2.57;;
7383;SDS011;3733;47.994;8.820;2023-07-29T14:15:42;3.23;;;2.83;;
7383;SDS011;3733;47.994;8.820;2023-07-29T14:18:08;4.90;;;2.60;;
7383;SDS011;3733;47.994;8.820;2023-07-29T14:20:34;5.97;;;3.50;;
7383;SDS011;3733;47.994;8.820;2023-07-29T14:22:59;5.87;;;3.60;;
7383;SDS011;3733;47.994;8.820;2023-07-29T14:25:25;5.97;;;3.40;;
7383;SDS011;3733;47.994;8.820;2023-07-29T14:27:50;10.67;;;3.73;;
7383;SDS011;3733;47.994;8.820;2023-07-29T14:30:16;6.40;;;3.90;;
7383;SDS011;3733;47.994;8.820;2023-07-29T14:32:42;5.17;;;3.47;;
7383;SDS011;3733;47.994;8.820;2023-07-29T14:35:07;5.33;;;3.10;;
7383;SDS011;3733;47.994;8.820;2023-07-29T14:37:33;6.47;;;3.63;;
7383;SDS011;3733;47.994;8.820;2023-07-29T14:39:59;5.20;;;2.83;;
7383;SDS011;3733;47.994;8.820;2023-07-29T14:42:27;3.80;;;3.37;;
7383;SDS011;3733;47.994;8.820;2023-07-29T14:44:52;6.73;;;3.33;;
7383;SDS011;3733;47.994;8.820;2023-07-29T14:47:18;3.90;;;3.00;;
7383;SDS011;3733;47.994;8.820;2023-07-29T14:49:44;4.60;;;3.30;;
7383;SDS011;3733;47.994;8.820;2023-07-29T14:52:10;3.30;;;3.00;;
7383;SDS011;3733;47.994;8.820;2023-07-29T14:54:36;10.37;;;3.10;;
7383;SDS011;3733;47.994;8.820;2023-07-29T14:57:01;3.97;;;2.53;;
7383;SDS011;3733;47.994;8.820;2023-07-29T14:59:27;4.03;;;3.10;;
7383;SDS011;3733;47.994;8.820;2023-07-29T15:01:53;4.60;;;3.20;;
7383;SDS011;3733;47.994;8.820;2023-07-29T15:04:18;3.77;;;2.77;;
7383;SDS011;3733;47.994;8.820;2023-07-29T15:06:44;3.33;;;2.77;;
7383;SDS011;3733;47.994;8.820;2023-07-29T15:09:10;5.30;;;3.50;;
7383;SDS011;3733;47.994;8.820;2023-07-29T15:11:36;3.50;;;2.70;;
7383;SDS011;3733;47.994;8.820;2023-07-29T15:14:02;6.43;;;3.00;;
7383;SDS011;3733;47.994;8.820;2023-07-29T15:16:28;3.07;;;2.77;;
7383;SDS011;3733;47.994;8.820;2023-07-29T15:18:54;2.70;;;2.50;;
7383;SDS011;3733;47.994;8.820;2023-07-29T15:21:20;4.37;;;2.90;;
7383;SDS011;3733;47.994;8.820;2023-07-29T15:23:46;5.70;;;3.00;;
7383;SDS011;3733;47.994;8.820;2023-07-29T15:26:11;4.07;;;3.00;;
7383;SDS011;3733;47.994;8.820;2023-07-29T15:28:37;5.80;;;3.10;;